• Join FlightAware (Why Join?)
  • Login
  • US Flag 
Rudolph Flight #1: Arrived! 
06:21AM EST


 

Airport Tracker/Info


-or-


 

Live Flight TrackerFlight Track Log ✈ FLG3580 ✈ 30-Jul-2013 ✈ KDLH - KMSP

Flight Track Log - Related Links

Times and Time Zones

All times are in EDT time to prevent confusion due to time zone crossing. See the FLG3580 flight status page for this flight to view local times or setup timezone preferences in your user account.

Time Position Orientation Groundspeed Altitude Reporting Facility
EDT Latitude Longitude Course Direction KTS MPH feet Rate Location/Type
01:48PM 46.7844 -92.3506 215° Southwest 190 219 6,300  Level Minneapolis Center
01:49PM 46.6465 -92.4548 223° Southwest  Level FlightAware Approximate
01:49PM 46.7342 -92.4208 224° Southwest 214 246 8,700  Level Minneapolis Center
01:50PM 46.5978 -92.5198 222° Southwest  Level FlightAware Approximate
01:50PM 46.6797 -92.4928 222° Southwest 248 285 10,900  Level Minneapolis Center
01:51PM 46.5491 -92.5846 225° Southwest  Level FlightAware Approximate
01:51PM 46.6017 -92.5944 222° Southwest 300 345 12,000  Level Minneapolis Center
01:52PM 46.4894 -92.6700 225° Southwest  Level FlightAware Approximate
01:52PM 46.5261 -92.6964 223° Southwest 349 402 12,000  Level Minneapolis Center
01:53PM 46.4292 -92.7542 215° Southwest  Level FlightAware Approximate
01:53PM 46.4500 -92.7972 222° Southwest 367 422 12,000  Level Minneapolis Center
01:54PM 46.3606 -92.9139 222° Southwest 363 418 12,000  Level Minneapolis Center
01:55PM 46.2878 -93.0111 223° Southwest 359 413 12,000  Level Minneapolis Center
01:56PM 46.2147 -93.1056 222° Southwest 355 409 12,000  Level Minneapolis Center
01:57PM 46.1353 -93.2094 222° Southwest 353 406 12,000  Level Minneapolis Center
01:58PM 46.0633 -93.3031 222° Southwest 350 403 12,000  Level Minneapolis Center
01:59PM 45.9914 -93.3961 222° Southwest 350 403 12,000  Level Minneapolis Center
02:00PM 45.9192 -93.4908 222° Southwest 351 404 12,000  Level Minneapolis Center
02:01PM 45.8458 -93.5831 221° Southwest 352 405 12,000  Level Minneapolis Center
02:02PM 45.7542 -93.6811 217° Southwest 351 404 12,000  Level Minneapolis Center
02:03PM 45.6572 -93.6478 166° South 363 418 12,000 -480 Level Minneapolis Center
02:04PM 45.5694 -93.6008 159° South 335 386 11,100 -540 Descending Minneapolis Center
02:05PM 45.4886 -93.5578 160° South 313 360 11,000 -60 Descending Minneapolis Center
02:06PM 45.4017 -93.5100 159° South 335 386 11,000  Level Minneapolis Center
02:07PM 45.3103 -93.4617 160° South 349 402 11,000  Level Minneapolis Center
02:08PM 45.1997 -93.4028 159° South 355 409 11,000  Level Minneapolis Center
02:10PM 45.1069 -93.3536 159° South 356 410 11,000 -600 Level Minneapolis Center
02:11PM 45.0253 -93.3086 159° South 311 358 9,800 -1,260 Descending Minneapolis Center
02:12PM 44.9494 -93.3039 177° South 272 313 8,500 -900 Descending Minneapolis Center
02:13PM 44.8814 -93.3050 181° South 248 285 8,000 -540 Descending Minneapolis Center
02:14PM 44.8053 -93.3050 180° South 232 267 7,400 -1,020 Descending Minneapolis Center
02:15PM 44.7419 -93.3064 181° South 235 270 6,000 -1,260 Descending Minneapolis Center
02:16PM 44.6944 -93.2828 161° South 211 243 4,800 -1,500 Descending Minneapolis Center
02:17PM 44.7200 -93.2081 64° Northeast 198 228 3,000 -960 Descending Minneapolis Center
02:18PM 44.7622 -93.2083 360° North 164 189 2,900 -480 Descending Minneapolis Center
02:19PM 44.8036 -93.2208 348° North 157 181 2,100 -720 Descending Minneapolis Center
02:20PM 44.8450 -93.2308 350° North 153 176 1,400 -720 Descending Minneapolis Center